Santa Ysabel Ranch (220) Station Data

Red Flag Warning: No
Fire Weather Zone: 258
SDGE Region: Ramona
Lat/Lon: 33.132/-116.686

Observations

Time Wind Speed/Gust Temp(F) RH Fuel Moist Fuel Temp(F) Dewpt(F) Tmax(F) Tmin(F) Accum Precip 10-min Precip SL Press(mb)
5/24 8:30am 302 1 G 4 69° 41% - - 44° 70.3° 49° - - -
5/24 8:20am 319 2 G 4 67° 44% - - 45° 68.1° 49° - - -
5/24 8:10am 43 2 G 4 66° 50% - - 47° 67.5° 49° - - -
5/24 8:00am 124 4 G 7 63° 59% - - 49° 64.9° 49° - - -
5/24 7:50am 171 6 G 8 62° 61% - - 48° 64.1° 49° - - -
5/24 7:40am 175 4 G 5 63° 66% - - 51° 64.1° 49° - - -
5/24 7:30am 358 1 G 2 63° 64% - - 50° 63.7° 49° - - -
5/24 7:20am 21 1 G 3 61° 64% - - 49° 61.7° 49° - - -
5/24 7:10am 327 0 G 1 60° 61% - - 46° 61.2° 49° - - -
5/24 7:00am 330 0 G 2 59° 62% - - 46° 61.2° 49° - - -
5/24 6:50am 351 3 G 5 59° 60% - - 45° 61.2° 49° - - -
5/24 6:40am 356 5 G 7 59° 57% - - 44° 61.2° 49° - - -
5/24 6:30am 352 7 G 9 56° 62% - - 43° 61.2° 49° - - -
5/24 6:20am 10 5 G 9 54° 66% - - 43° 61.2° 49° - - -
5/24 6:10am 321 1 G 2 55° 62% - - 43° 61.2° 49° - - -
5/24 6:00am 341 2 G 5 55° 63% - - 43° 61.2° 49° - - -
5/24 5:50am 345 6 G 6 55° 62% - - 43° 61.2° 49° - - -
5/24 5:40am 353 7 G 8 56° 61% - - 43° 61.2° 49° - - -
5/24 5:30am 356 6 G 7 57° 60% - - 43° 61.2° 49° - - -
5/24 5:20am 341 6 G 7 53° 71% - - 44° 61.2° 49° - - -
5/24 5:10am 352 2 G 6 52° 71% - - 43° 61.2° 49° - - -
5/24 5:00am 348 2 G 3 52° 72% - - 43° 61.2° 49° - - -
5/24 4:50am 0 3 G 4 52° 74% - - 44° 61.2° 49° - - -
5/24 4:40am 4 3 G 4 52° 77% - - 45° 61.2° 49° - - -
5/24 4:30am 2 3 G 4 50° 79% - - 44° 61.2° 49° - - -
5/24 4:20am 2 4 G 6 53° 70% - - 44° 61.2° 49.9° - - -
5/24 4:10am 354 5 G 6 55° 67% - - 44° 61.2° 51.3° - - -
5/24 4:00am 344 5 G 6 53° 72% - - 44° 61.2° 51.3° - - -
5/24 3:50am 343 1 G 4 54° 68% - - 43° 61.2° 51.4° - - -
5/24 3:40am 253 2 G 4 56° 63% - - 43° 61.2° 52.3° - - -
5/24 3:30am 343 1 G 2 55° 66% - - 44° 61.2° 52.3° - - -
5/24 3:20am 2 3 G 6 55° 65% - - 44° 61.2° 52.3° - - -
5/24 3:10am 4 5 G 7 56° 68% - - 45° 61.2° 52.3° - - -
5/24 3:00am 342 6 G 7 54° 75% - - 46° 61.2° 52.3° - - -
5/24 2:50am 7 2 G 5 57° 65% - - 45° 61.2° 52.3° - - -
5/24 2:40am 200 1 G 3 57° 65% - - 46° 61.2° 52.3° - - -
5/24 2:30am 340 4 G 6 56° 70% - - 47° 61.2° 52.3° - - -
5/24 2:20am 2 7 G 9 60° 60% - - 46° 61.2° 52.3° - - -
5/24 2:10am 349 6 G 8 58° 65% - - 46° 61.1° 52.3° - - -
5/24 2:00am 3 1 G 4 56° 71% - - 47° 59.5° 52.3° - - -
5/24 1:50am 335 3 G 5 56° 73% - - 47° 59.5° 52.3° - - -
5/24 1:40am 349 5 G 7 58° 67% - - 47° 59.5° 52.3° - - -
5/24 1:30am 351 6 G 7 57° 69% - - 47° 59.5° 52.3° - - -
5/24 1:20am 4 4 G 7 55° 76% - - 48° 59.5° 52.3° - - -
5/24 1:10am 344 5 G 6 54° 75% - - 47° 59.5° 52.3° - - -
5/24 1:00am 360 3 G 6 55° 73% - - 47° 59.5° 52.4° - - -
5/24 12:50am 343 3 G 5 56° 74% - - 48° 59.5° 53.6° - - -
5/24 12:40am 296 2 G 3 55° 78% - - 49° 59.5° 53.6° - - -
5/24 12:30am 25 2 G 3 55° 76% - - 48° 59.5° 53.7° - - -
5/24 12:20am 321 2 G 4 56° 75% - - 48° 59.5° 55.1° - - -
5/24 12:10am 337 3 G 4 58° 72% - - 49° 59.5° 55.1° - - -
5/24 12:00am 3 3 G 4 57° 75% - - 49° 89.8° 51.4° - - -
5/23 11:50pm 1 3 G 5 57° 74% - - 48° 89.8° 51.4° - - -
5/23 11:40pm 0 2 G 4 58° 76% - - 50° 89.8° 51.4° - - -
5/23 11:30pm 359 3 G 4 58° 75% - - 50° 89.8° 51.4° - - -
5/23 11:20pm 9 3 G 4 58° 74% - - 50° 89.8° 51.4° - - -
5/23 11:10pm 347 2 G 4 61° 70% - - 51° 89.8° 51.4° - - -
5/23 11:00pm 348 4 G 5 60° 68% - - 50° 89.8° 51.4° - - -
5/23 10:50pm 347 5 G 7 60° 70% - - 50° 89.8° 51.4° - - -
5/23 10:40pm 15 4 G 5 58° 75% - - 50° 89.8° 51.4° - - -
5/23 10:30pm 351 5 G 6 60° 74% - - 52° 89.8° 51.4° - - -
5/23 10:20pm 349 4 G 5 60° 74% - - 52° 89.8° 51.4° - - -
5/23 10:10pm 352 1 G 3 61° 74% - - 53° 89.8° 51.4° - - -
5/23 10:00pm 348 2 G 2 61° 75% - - 53° 89.8° 51.4° - - -
5/23 9:50pm 359 2 G 4 61° 75% - - 53° 89.8° 51.4° - - -
5/23 9:40pm 348 4 G 6 62° 72% - - 53° 89.8° 51.4° - - -
5/23 9:30pm 2 5 G 6 62° 72% - - 53° 89.8° 51.4° - - -
5/23 9:20pm 342 5 G 6 66° 64% - - 53° 89.8° 51.4° - - -
5/23 9:10pm 340 4 G 6 65° 65% - - 53° 89.8° 51.4° - - -
5/23 9:00pm 348 5 G 6 65° 66% - - 54° 89.8° 51.4° - - -
5/23 8:50pm 26 4 G 6 64° 68% - - 54° 89.8° 51.4° - - -
5/23 8:40pm 304 2 G 5 68° 60% - - 54° 89.8° 51.4° - - -
5/23 8:30pm 333 6 G 7 67° 62% - - 54° 89.8° 51.4° - - -
5/23 8:20pm 346 6 G 7 68° 62% - - 54° 89.8° 51.4° - - -
5/23 8:10pm 16 2 G 6 70° 57% - - 54° 89.8° 51.4° - - -
5/23 8:00pm 243 4 G 5 72° 52% - - 54° 89.8° 51.4° - - -
5/23 7:50pm 196 5 G 6 73° 51% - - 54° 89.8° 51.4° - - -
5/23 7:40pm 159 5 G 8 73° 51% - - 54° 89.8° 51.4° - - -
5/23 7:30pm 218 5 G 8 74° 49% - - 54° 89.8° 51.4° - - -
5/23 7:20pm 235 6 G 9 75° 47% - - 54° 89.8° 51.4° - - -
5/23 7:10pm 240 5 G 7 77° 45% - - 54° 89.8° 51.4° - - -
5/23 7:00pm 240 5 G 7 78° 43% - - 54° 89.8° 51.4° - - -
5/23 6:50pm 235 5 G 7 79° 41% - - 53° 89.8° 51.4° - - -
5/23 6:40pm 239 5 G 8 80° 38% - - 52° 89.8° 51.4° - - -
5/23 6:30pm 224 6 G 8 81° 36% - - 51° 89.8° 51.4° - - -
5/23 6:20pm 212 4 G 7 81° 36% - - 52° 89.8° 51.4° - - -
5/23 6:10pm 177 3 G 5 81° 36% - - 52° 89.8° 51.4° - - -
5/23 6:00pm 161 3 G 4 81° 36% - - 52° 89.8° 51.4° - - -
5/23 5:50pm 245 1 G 4 82° 36% - - 53° 89.8° 51.4° - - -
5/23 5:40pm 227 2 G 7 81° 36% - - 52° 89.8° 51.4° - - -
5/23 5:30pm 211 4 G 7 81° 38% - - 53° 89.8° 51.4° - - -
5/23 5:20pm 223 4 G 6 81° 38% - - 53° 89.8° 51.4° - - -
5/23 5:10pm 217 5 G 8 80° 39% - - 53° 89.8° 51.4° - - -
5/23 5:00pm 203 6 G 11 80° 42% - - 55° 89.8° 51.4° - - -
5/23 4:50pm 204 6 G 10 80° 44% - - 56° 89.8° 51.4° - - -
5/23 4:40pm 205 5 G 10 80° 45% - - 57° 89.8° 51.4° - - -
5/23 4:30pm 220 7 G 10 80° 47% - - 58° 89.8° 51.4° - - -
5/23 4:20pm 212 7 G 13 80° 46% - - 58° 89.8° 51.4° - - -
5/23 4:10pm 236 6 G 10 79° 46% - - 57° 89.8° 51.4° - - -
5/23 4:00pm 243 7 G 12 79° 46% - - 57° 89.8° 51.4° - - -
5/23 3:50pm 228 7 G 12 79° 47% - - 57° 89.8° 51.4° - - -
5/23 3:40pm 231 7 G 12 79° 47% - - 57° 89.8° 51.4° - - -
5/23 3:30pm 243 7 G 11 79° 48% - - 57° 89.8° 51.4° - - -
5/23 3:20pm 252 10 G 14 79° 47% - - 57° 89.8° 51.4° - - -
5/23 3:10pm 247 10 G 13 80° 47% - - 58° 89.8° 51.4° - - -
5/23 3:00pm 243 9 G 15 81° 45% - - 58° 89.8° 51.4° - - -
5/23 2:50pm 251 10 G 13 82° 44% - - 57° 89.8° 51.4° - - -
5/23 2:40pm 222 10 G 15 83° 41% - - 57° 89.8° 51.4° - - -
5/23 2:30pm 226 9 G 14 83° 40% - - 56° 89.8° 51.4° - - -
5/23 2:20pm 233 10 G 15 84° 37% - - 55° 89.8° 51.4° - - -
5/23 2:10pm 228 10 G 15 85° 33% - - 53° 89.8° 51.4° - - -
5/23 2:00pm 222 9 G 15 85° 34% - - 54° 89.8° 51.4° - - -
5/23 1:50pm 243 8 G 14 86° 32% - - 52° 89.8° 51.4° - - -
5/23 1:40pm 226 8 G 12 86° 30% - - 51° 89.8° 51.4° - - -
5/23 1:30pm 230 9 G 14 87° 27% - - 48° 89.8° 51.4° - - -
5/23 1:20pm 227 8 G 12 86° 28% - - 49° 89.8° 51.4° - - -
5/23 1:10pm 211 11 G 16 86° 27% - - 49° 89.8° 51.4° - - -
5/23 1:00pm 223 9 G 14 87° 25% - - 47° 89.8° 51.4° - - -
5/23 12:50pm 220 9 G 14 88° 22% - - 44° 89.8° 51.4° - - -
5/23 12:40pm 224 9 G 14 87° 21% - - 42° 89.8° 51.4° - - -
5/23 12:30pm 240 9 G 15 87° 21% - - 42° 89.8° 51.4° - - -
5/23 12:20pm 244 11 G 17 88° 21% - - 43° 89.8° 51.4° - - -
5/23 12:10pm 244 10 G 15 88° 19% - - 40° 89.8° 51.4° - - -
5/23 12:00pm 242 9 G 14 89° 16% - - 37° 89.8° 51.4° - - -
5/23 11:50am 224 8 G 13 89° 17% - - 38° 89.8° 51.4° - - -
5/23 11:40am 226 8 G 12 88° 16% - - 37° 89.2° 51.4° - - -
5/23 11:30am 233 8 G 13 88° 16% - - 36° 89.2° 51.4° - - -
5/23 11:20am 219 9 G 14 88° 18% - - 40° 88.9° 51.4° - - -
5/23 11:10am 213 8 G 13 88° 21% - - 43° 88.8° 51.4° - - -
5/23 11:00am 219 7 G 14 88° 23% - - 46° 88.7° 51.4° - - -
5/23 10:50am 227 6 G 9 87° 26% - - 48° 88.7° 51.4° - - -
5/23 10:40am 238 7 G 11 86° 28% - - 49° 88.7° 51.4° - - -
5/23 10:30am 236 8 G 12 86° 28% - - 49° 88.7° 51.4° - - -
5/23 10:20am 242 6 G 8 86° 26% - - 47° 88.7° 51.4° - - -
5/23 10:10am 238 4 G 9 87° 23% - - 45° 88.7° 51.4° - - -
5/23 10:00am 35 3 G 7 86° 22% - - 43° 87.2° 51.4° - - -
5/23 9:50am 37 6 G 9 85° 24% - - 44° 85.7° 51.4° - - -
5/23 9:40am 36 7 G 10 84° 27% - - 46° 84.6° 51.4° - - -
5/23 9:30am 40 7 G 9 83° 28% - - 46° 83.4° 51.4° - - -
5/23 9:20am 41 8 G 9 82° 30% - - 47° 82.7° 51.4° - - -
5/23 9:10am 32 8 G 10 81° 31% - - 48° 81.9° 51.4° - - -
5/23 9:00am 31 7 G 10 80° 32% - - 48° 80.8° 51.4° - - -
5/23 8:50am 35 8 G 10 79° 33% - - 47° 79.3° 51.4° - - -
5/23 8:40am 30 9 G 10 77° 34% - - 47° 78.4° 51.4° - - -
5/23 8:30am 30 10 G 12 76° 35% - - 46° 77.1° 51.4° - - -
5/23 8:20am 34 11 G 13 74° 37% - - 46° 75.6° 51.4° - - -
5/23 8:10am 35 10 G 13 74° 37% - - 46° 74.3° 51.4° - - -
5/23 8:00am 28 10 G 13 73° 37% - - 45° 74° 51.4° - - -
5/23 7:50am 28 9 G 12 73° 36% - - 45° 73.9° 51.4° - - -
5/23 7:40am 36 8 G 11 72° 38% - - 45° 73° 51.4° - - -
5/23 7:30am 26 7 G 11 71° 40% - - 45° 71.8° 51.4° - - -
5/23 7:20am 18 8 G 13 69° 41% - - 45° 70.4° 51.4° - - -
5/23 7:10am 18 6 G 12 68° 43% - - 45° 68.5° 51.4° - - -
5/23 7:00am 19 8 G 13 67° 44% - - 44° 67.9° 51.4° - - -
5/23 6:50am 29 7 G 13 66° 45% - - 44° 67.1° 51.4° - - -
5/23 6:40am 22 7 G 10 64° 48% - - 44° 65.7° 51.4° - - -
5/23 6:30am 25 8 G 12 64° 47% - - 44° 65.7° 51.4° - - -
5/23 6:20am 19 7 G 11 62° 51% - - 44° 64.9° 51.4° - - -
5/23 6:10am 10 8 G 12 63° 49% - - 44° 64.9° 51.4° - - -
5/23 6:00am 4 8 G 11 62° 52% - - 44° 64.9° 51.4° - - -